Welcome to Northern Hawkes Bay. New Zealand.
PWS Header
      nz Flag



Hit Counter


W3C Valid W3C Valid logo


    Wairoa

Select any of the Stations below to visit their websites.










Historic Data from Weather Underground
Select the location of interest below. Wairoa is the default. Please have patience, this Data is slow to load in.
Northern Hawkes Bay Historical Data
Daily Summary for July 9, 2017 Units:  English    Metric   Both
« Previous Day
Next Day »
Daily Weekly Monthly Yearly Custom
  High: Low: Average:
Temperature: 52.9 °F 42.8 °F 46.6 °F
Dew Point: 52.3 °F 41.9 °F 45.5 °F
Humidity: 99% 92% 97%
Wind Speed: 13.6mph 0mph 3.2mph
Wind Gust: 19mph - -
Wind- - WSW
Pressure: 29.7 in 29.5 in -
Precipitation: 1.18 in    
Historical Graphs
 
 
Tabular Data for July 9, 2017
Time Temperature Dew Point Pressure Wind Wind Speed Wind Gust Humidity Rainfall Rate (Hourly) solar
00:01 43.7 °F 42.4 °F 29.7 in North 2.2 mph 3.8 mph 95% 0 in 0 W/m2
00:06 43.5 °F 42.4 °F 29.7 in NNW 3.1 mph 3.8 mph 96% 0 in 0 W/m2
00:09 43.5 °F 42.4 °F 29.7 in NNW 2.2 mph 4.5 mph 96% 0 in 0 W/m2
00:14 43.7 °F 42.6 °F 29.7 in NW 3.1 mph 4.5 mph 96% 0 in 0 W/m2
00:19 43.9 °F 42.8 °F 29.7 in NW 3.1 mph 5.4 mph 96% 0 in 0 W/m2
00:24 43.9 °F 42.8 °F 29.7 in NW 3.1 mph 5.4 mph 96% 0 in 0 W/m2
00:29 44.1 °F 43 °F 29.7 in NW 5.4 mph 6.9 mph 96% 0 in 0 W/m2
00:34 44.1 °F 43.3 °F 29.7 in NW 3.8 mph 6.9 mph 97% 0 in 0 W/m2
00:39 44.2 °F 43.3 °F 29.7 in NNW 3.1 mph 6.9 mph 97% 0 in 0 W/m2
00:44 44.2 °F 43.3 °F 29.7 in NW 2.2 mph 6.9 mph 97% 0 in 0 W/m2
00:49 44.2 °F 43.3 °F 29.7 in NW 4.5 mph 6.9 mph 97% 0 in 0 W/m2
00:54 44.4 °F 43.3 °F 29.7 in NW 2.2 mph 6.9 mph 96% 0 in 0 W/m2
00:59 44.4 °F 43.3 °F 29.7 in NW 2.2 mph 6 mph 96% 0 in 0 W/m2
01:04 44.4 °F 43.3 °F 29.7 in NW 3.1 mph 6 mph 96% 0 in 0 W/m2
01:10 44.2 °F 43.2 °F 29.7 in NW 2.2 mph 3.8 mph 96% 0 in 0 W/m2
01:15 44.2 °F 43.2 °F 29.7 in NW 2.2 mph 3.8 mph 96% 0 in 0 W/m2
01:20 44.4 °F 43.3 °F 29.7 in WNW 2.2 mph 3.8 mph 96% 0 in 0 W/m2
01:25 44.2 °F 43.2 °F 29.7 in WNW 3.1 mph 4.5 mph 96% 0 in 0 W/m2
01:30 44.2 °F 43.2 °F 29.7 in NW 3.1 mph 5.4 mph 96% 0 in 0 W/m2
01:47 44.1 °F 42.6 °F 29.7 in NW 1.6 mph 4.5 mph 95% 0 in 0 W/m2
01:52 44.1 °F 42.6 °F 29.7 in NW 1.6 mph 4.5 mph 95% 0 in 0 W/m2
01:57 44.1 °F 42.6 °F 29.7 in NW 3.8 mph 4.5 mph 95% 0 in 0 W/m2
02:02 44.1 °F 42.6 °F 29.7 in NW 1.6 mph 4.5 mph 95% 0 in 0 W/m2
02:07 43.9 °F 42.4 °F 29.7 in NW 0.7 mph 4.5 mph 95% 0 in 0 W/m2
02:12 43.7 °F 42.4 °F 29.7 in NW 0.7 mph 3.1 mph 95% 0 in 0 W/m2
02:17 43.5 °F 42.3 °F 29.7 in NW 1.6 mph 3.1 mph 95% 0 in 0 W/m2
02:22 43.5 °F 42.3 °F 29.7 in NNW 2.2 mph 3.8 mph 95% 0 in 0 W/m2
02:27 43.5 °F 42.3 °F 29.7 in NW 2.2 mph 3.8 mph 95% 0 in 0 W/m2
02:32 43.5 °F 42.4 °F 29.7 in NW 2.2 mph 4.5 mph 96% 0 in 0 W/m2
02:37 43.5 °F 42.4 °F 29.7 in NNW 3.1 mph 4.5 mph 96% 0 in 0 W/m2
02:43 43.5 °F 42.4 °F 29.7 in NNW 2.2 mph 4.5 mph 96% 0 in 0 W/m2
02:48 43.5 °F 42.4 °F 29.7 in NNW 2.2 mph 4.5 mph 96% 0 in 0 W/m2
02:53 43.5 °F 42.4 °F 29.7 in NNW 1.6 mph 3.8 mph 96% 0 in 0 W/m2
02:58 43.5 °F 42.4 °F 29.7 in North 0.7 mph 3.8 mph 96% 0 in 0 W/m2
03:03 43.5 °F 42.4 °F 29.7 in NNW 0.7 mph 2.2 mph 96% 0 in 0 W/m2
03:08 43.5 °F 42.4 °F 29.7 in NNW 1.6 mph 3.1 mph 96% 0 in 0 W/m2
03:13 43.5 °F 42.4 °F 29.7 in North 0.7 mph 3.1 mph 96% 0 in 0 W/m2
03:18 43.5 °F 42.4 °F 29.7 in NNW 3.1 mph 3.8 mph 96% 0 in 0 W/m2
03:24 43.3 °F 42.3 °F 29.7 in NW 3.8 mph 5.4 mph 96% 0 in 0 W/m2
03:29 43.3 °F 42.3 °F 29.7 in NW 3.1 mph 5.4 mph 96% 0 in 0 W/m2
03:34 43.3 °F 42.3 °F 29.7 in NW 3.1 mph 5.4 mph 96% 0 in 0 W/m2
03:39 43.3 °F 42.3 °F 29.6 in NW 2.2 mph 4.5 mph 96% 0 in 0 W/m2
03:44 43.3 °F 42.3 °F 29.6 in NNW 2.2 mph 4.5 mph 96% 0 in 0 W/m2
03:49 43.3 °F 42.3 °F 29.6 in North 2.2 mph 3.8 mph 96% 0 in 0 W/m2
03:54 43.3 °F 42.3 °F 29.6 in North 2.2 mph 3.8 mph 96% 0 in 0 W/m2
03:59 43.3 °F 42.4 °F 29.6 in North 0.7 mph 3.8 mph 97% 0 in 0 W/m2
04:04 43.3 °F 42.4 °F 29.6 in NNE 0.7 mph 3.8 mph 97% 0 in 0 W/m2
04:09 43 °F 41.9 °F 29.6 in NNE 0.7 mph 3.8 mph 96% 0 in 0 W/m2
04:14 43 °F 41.9 °F 29.6 in North 2.2 mph 3.8 mph 96% 0 in 0 W/m2
04:19 43 °F 42.3 °F 29.6 in North 1.6 mph 3.8 mph 97% 0 in 0 W/m2
04:24 43.2 °F 42.4 °F 29.6 in North 3.8 mph 5.4 mph 97% 0 in 0 W/m2
04:29 43.3 °F 42.4 °F 29.6 in North 1.6 mph 5.4 mph 97% 0 in 0 W/m2
04:34 43.2 °F 42.4 °F 29.6 in NNE 0.7 mph 5.4 mph 97% 0 in 0 W/m2
04:39 43.2 °F 42.4 °F 29.6 in NNE 0.7 mph 3.1 mph 97% 0 in 0 W/m2
04:44 43 °F 42.3 °F 29.6 in NNE 3.1 mph 3.8 mph 97% 0 in 0 W/m2
04:49 43 °F 42.3 °F 29.6 in NE 0.7 mph 3.8 mph 97% 0 in 0 W/m2
04:54 42.8 °F 42.1 °F 29.6 in NE 1.6 mph 3.8 mph 97% 0 in 0 W/m2
04:59 42.8 °F 42.1 °F 29.6 in NNE 2.2 mph 3.8 mph 97% 0 in 0 W/m2
05:04 42.8 °F 42.1 °F 29.6 in North 0.7 mph 3.8 mph 97% 0 in 0 W/m2
05:09 43 °F 42.4 °F 29.6 in Calm   3.1 mph 98% 0 in 0 W/m2
05:14 43 °F 42.4 °F 29.6 in Calm   3.1 mph 98% 0 in 0 W/m2
05:19 43 °F 42.4 °F 29.6 in NNW 2.2 mph 3.1 mph 98% 0 in 0 W/m2
05:24 43.2 °F 42.6 °F 29.6 in NNW 1.6 mph 3.8 mph 98% 0 in 0 W/m2
05:29 43 °F 42.4 °F 29.6 in North 1.6 mph 3.8 mph 98% 0 in 0 W/m2
05:34 43 °F 42.4 °F 29.6 in NNW 2.2 mph 3.1 mph 98% 0 in 0 W/m2
05:39 43 °F 42.4 °F 29.6 in NNW 2.2 mph 4.5 mph 98% 0 in 0 W/m2
05:44 43 °F 42.4 °F 29.6 in NNW 1.6 mph 4.5 mph 98% 0 in 0 W/m2
05:49 43 °F 42.4 °F 29.6 in NNW 2.2 mph 4.5 mph 98% 0 in 0 W/m2
05:54 43 °F 42.4 °F 29.6 in North 2.2 mph 4.5 mph 98% 0 in 0 W/m2
05:59 43 °F 42.4 °F 29.6 in NNW 2.2 mph 4.5 mph 98% 0 in 0 W/m2
06:04 43 °F 42.4 °F 29.6 in NNW 1.6 mph 4.5 mph 98% 0 in 0 W/m2
06:09 42.8 °F 42.3 °F 29.6 in NNW 1.6 mph 3.8 mph 98% 0 in 0 W/m2
06:14 42.8 °F 42.3 °F 29.6 in NNW 2.2 mph 4.5 mph 98% 0 in 0 W/m2
06:19 42.8 °F 42.3 °F 29.6 in North 1.6 mph 4.5 mph 98% 0 in 0 W/m2
06:24 43 °F 42.4 °F 29.6 in North 1.6 mph 4.5 mph 98% 0 in 0 W/m2
06:29 43.2 °F 42.6 °F 29.6 in North 0.7 mph 3.8 mph 98% 0 in 0 W/m2
06:34 43.2 °F 42.6 °F 29.6 in NNE 1.6 mph 3.8 mph 98% 0 in 0 W/m2
06:39 43.2 °F 42.6 °F 29.6 in NE 0.7 mph 3.1 mph 98% 0 in 0 W/m2
06:44 43.2 °F 42.6 °F 29.6 in NE 1.6 mph 3.1 mph 98% 0 in 0 W/m2
06:49 43.2 °F 42.6 °F 29.6 in NE 1.6 mph 3.8 mph 98% 0 in 0 W/m2
06:54 43.2 °F 42.6 °F 29.6 in NE 1.6 mph 3.8 mph 98% 0 in 0 W/m2
06:59 43.2 °F 42.6 °F 29.6 in NNE 0.7 mph 3.8 mph 98% 0 in 0 W/m2
07:04 43.2 °F 42.6 °F 29.6 in North 1.6 mph 3.8 mph 98% 0 in 0 W/m2
07:09 43.2 °F 42.6 °F 29.6 in NNE 0.7 mph 3.1 mph 98% 0 in 0 W/m2
07:14 43.5 °F 43 °F 29.6 in NNE 0.7 mph 3.1 mph 98% 0 in 0 W/m2
07:19 43.5 °F 43 °F 29.6 in North 2.2 mph 5.4 mph 98% 0 in 0 W/m2
07:24 43.5 °F 43 °F 29.6 in North 0.7 mph 5.4 mph 98% 0 in 0 W/m2
07:29 43.7 °F 43.2 °F 29.6 in NNE 2.2 mph 3.8 mph 98% 0 in 0 W/m2
07:34 43.7 °F 43.2 °F 29.6 in NNE 0.7 mph 3.8 mph 98% 0.01 in 0 W/m2
07:39 43.7 °F 43.2 °F 29.6 in North 1.6 mph 3.8 mph 98% 0.01 in 0 W/m2
07:44 43.7 °F 43.2 °F 29.6 in North 2.2 mph 3.1 mph 98% 0.01 in 0 W/m2
07:49 43.7 °F 43.2 °F 29.6 in North 3.1 mph 4.5 mph 98% 0.01 in 0 W/m2
07:54 43.9 °F 43.3 °F 29.6 in North 3.1 mph 5.4 mph 98% 0.01 in 0 W/m2
07:59 43.9 °F 43.3 °F 29.6 in North 1.6 mph 5.4 mph 98% 0.01 in 0 W/m2
08:04 43.9 °F 43.3 °F 29.6 in North 2.2 mph 5.4 mph 98% 0.02 in 2 W/m2
08:09 44.1 °F 43.5 °F 29.6 in North 1.6 mph 3.8 mph 98% 0.02 in 2 W/m2
08:14 44.1 °F 43.5 °F 29.6 in North 2.2 mph 3.8 mph 98% 0.02 in 1 W/m2
08:19 44.1 °F 43.5 °F 29.6 in NNW 3.1 mph 5.4 mph 98% 0.04 in 0 W/m2
08:24 44.1 °F 43.5 °F 29.6 in NW 1.6 mph 5.4 mph 98% 0.04 in 0 W/m2
08:29 44.2 °F 43.7 °F 29.6 in NW 0.7 mph 4.5 mph 98% 0.05 in 0 W/m2
08:34 44.2 °F 43.7 °F 29.6 in North 1.6 mph 3.8 mph 98% 0.05 in 1 W/m2
08:39 44.2 °F 43.7 °F 29.6 in North 0.7 mph 3.1 mph 98% 0.05 in 3 W/m2
08:44 44.2 °F 43.7 °F 29.6 in Calm   2.2 mph 98% 0.06 in 3 W/m2
08:49 44.4 °F 43.9 °F 29.6 in North 0.7 mph 1.6 mph 98% 0.07 in 3 W/m2
08:54 44.6 °F 43.9 °F 29.6 in NNW 0.7 mph 2.2 mph 97% 0.08 in 2 W/m2
08:58 44.6 °F 43.9 °F 29.6 in NNW 0.7 mph 2.2 mph 97% 0.09 in 3 W/m2
09:04 44.8 °F 44.1 °F 29.6 in NNW 0.7 mph 2.2 mph 97% 0.09 in 3 W/m2
09:06 44.8 °F 44.1 °F 29.6 in Calm   2.2 mph 97% 0.11 in 3 W/m2
09:12 44.8 °F 44.1 °F 29.6 in NNW 1.6 mph 3.1 mph 97% 0.12 in 4 W/m2
09:17 44.8 °F 44.1 °F 29.6 in NW 2.2 mph 3.8 mph 97% 0.13 in 5 W/m2
09:22 44.8 °F 44.1 °F 29.6 in NW 3.1 mph 4.5 mph 97% 0.14 in 8 W/m2
09:27 44.8 °F 44.1 °F 29.6 in NW 2.2 mph 4.5 mph 97% 0.15 in 12 W/m2
09:32 44.8 °F 44.1 °F 29.6 in Calm   4.5 mph 97% 0.14 in 16 W/m2
09:37 45 °F 44.2 °F 29.6 in NNW 1.6 mph 3.8 mph 97% 0.14 in 18 W/m2
09:41 45 °F 44.2 °F 29.6 in NNW 2.2 mph 3.1 mph 97% 0.14 in 21 W/m2
09:47 45.1 °F 44.2 °F 29.6 in NNW 0.7 mph 3.1 mph 97% 0.14 in 25 W/m2
09:52 45.1 °F 44.2 °F 29.6 in Calm   3.1 mph 97% 0.12 in 25 W/m2
09:57 45.1 °F 44.2 °F 29.6 in NW 1.6 mph 3.1 mph 97% 0.11 in 26 W/m2
10:02 45.1 °F 44.2 °F 29.6 in NW 2.2 mph 4.5 mph 97% 0.11 in 30 W/m2
10:07 45.1 °F 44.2 °F 29.6 in NW 2.2 mph 4.5 mph 97% 0.08 in 38 W/m2
10:12 45.1 °F 44.2 °F 29.6 in NW 2.2 mph 3.1 mph 97% 0.07 in 43 W/m2
10:17 45.1 °F 44.2 °F 29.6 in NW 2.2 mph 3.1 mph 97% 0.05 in 43 W/m2
10:22 45.1 °F 44.2 °F 29.6 in NW 2.2 mph 3.1 mph 97% 0.04 in 43 W/m2
10:38 45.1 °F 44.2 °F 29.6 in NW 2.2 mph 3.1 mph 97% 0.01 in 43 W/m2
10:43 45.1 °F 44.2 °F 29.6 in NW 2.2 mph 3.1 mph 97% 0 in 43 W/m2
10:47 45.1 °F 44.2 °F 29.6 in NW 2.2 mph 3.1 mph 97% 0 in 43 W/m2
10:53 45.1 °F 44.2 °F 29.6 in NW 2.2 mph 3.1 mph 97% 0 in 43 W/m2
10:58 45.1 °F 44.2 °F 29.6 in NW 2.2 mph 3.1 mph 97% 0 in 43 W/m2
11:02 45.1 °F 44.2 °F 29.6 in NW 2.2 mph 3.1 mph 97% 0 in 43 W/m2
11:08 45.1 °F 44.2 °F 29.5 in NW 2.2 mph 3.1 mph 97% 0 in 43 W/m2
11:12 45.1 °F 44.2 °F 29.5 in NW 2.2 mph 3.1 mph 97% 0 in 43 W/m2
11:18 45.1 °F 44.2 °F 29.5 in NW 2.2 mph 3.1 mph 97% 0 in 43 W/m2
11:23 45.1 °F 44.2 °F 29.5 in NW 2.2 mph 3.1 mph 97% 0 in 43 W/m2
11:28 45.1 °F 44.2 °F 29.5 in NW 2.2 mph 3.1 mph 97% 0 in 43 W/m2
11:33 45.1 °F 44.2 °F 29.5 in NW 2.2 mph 3.1 mph 97% 0 in 43 W/m2
11:38 45.1 °F 44.2 °F 29.5 in NW 2.2 mph 3.1 mph 97% 0 in 43 W/m2
11:42 45.1 °F 44.2 °F 29.5 in NW 2.2 mph 3.1 mph 97% 0 in 43 W/m2
11:47 45.1 °F 44.2 °F 29.5 in NW 2.2 mph 3.1 mph 97% 0 in 43 W/m2
11:53 45.1 °F 44.2 °F 29.5 in NW 2.2 mph 3.1 mph 97% 0 in 43 W/m2
11:57 45.1 °F 44.2 °F 29.5 in NW 2.2 mph 3.1 mph 97% 0 in 43 W/m2
12:03 45.1 °F 44.2 °F 29.5 in NW 2.2 mph 3.1 mph 97% 0 in 43 W/m2
12:07 45.1 °F 44.2 °F 29.5 in NW 2.2 mph 3.1 mph 97% 0 in 43 W/m2
12:12 45.1 °F 44.2 °F 29.5 in NW 2.2 mph 3.1 mph 97% 0 in 43 W/m2
12:18 45.1 °F 44.2 °F 29.5 in NW 2.2 mph 3.1 mph 97% 0 in 43 W/m2
12:22 45.1 °F 44.2 °F 29.5 in NW 2.2 mph 3.1 mph 97% 0 in 43 W/m2
12:28 45.1 °F 44.2 °F 29.5 in NW 2.2 mph 3.1 mph 97% 0 in 43 W/m2
12:33 45.1 °F 44.2 °F 29.5 in NW 2.2 mph 3.1 mph 97% 0 in 43 W/m2
12:37 45.1 °F 44.2 °F 29.5 in NW 2.2 mph 3.1 mph 97% 0 in 43 W/m2
12:42 45.1 °F 44.2 °F 29.5 in NW 2.2 mph 3.1 mph 97% 0 in 43 W/m2
12:47 45.1 °F 44.2 °F 29.5 in NW 2.2 mph 3.1 mph 97% 0 in 43 W/m2
13:03 45.1 °F 44.2 °F 29.5 in NW 2.2 mph 3.1 mph 97% 0 in 43 W/m2
13:09 45.1 °F 44.2 °F 29.5 in NW 2.2 mph 3.1 mph 97% 0 in 43 W/m2
13:14 45.1 °F 44.2 °F 29.5 in NW 2.2 mph 3.1 mph 97% 0 in 43 W/m2
13:19 45.1 °F 44.2 °F 29.5 in NW 2.2 mph 3.1 mph 97% 0 in 43 W/m2
13:24 45.1 °F 44.2 °F 29.5 in NW 2.2 mph 3.1 mph 97% 0 in 43 W/m2
13:28 45.1 °F 44.2 °F 29.5 in NW 2.2 mph 3.1 mph 97% 0 in 43 W/m2
13:34 45.1 °F 44.2 °F 29.5 in NW 2.2 mph 3.1 mph 97% 0 in 43 W/m2
13:38 45.1 °F 44.2 °F 29.5 in NW 2.2 mph 3.1 mph 97% 0 in 43 W/m2
13:43 45.1 °F 44.2 °F 29.5 in NW 2.2 mph 3.1 mph 97% 0 in 43 W/m2
13:48 45.1 °F 44.2 °F 29.5 in NW 2.2 mph 3.1 mph 97% 0 in 43 W/m2
13:53 45.1 °F 44.2 °F 29.5 in NW 2.2 mph 3.1 mph 97% 0 in 43 W/m2
13:58 45.1 °F 44.2 °F 29.5 in NW 2.2 mph 3.1 mph 97% 0 in 43 W/m2
14:03 45.1 °F 44.2 °F 29.5 in NW 2.2 mph 3.1 mph 97% 0 in 43 W/m2
14:09 45.1 °F 44.2 °F 29.5 in NW 2.2 mph 3.1 mph 97% 0 in 43 W/m2
14:25 45.1 °F 44.2 °F 29.5 in NW 2.2 mph 3.1 mph 97% 0 in 43 W/m2
14:30 45.1 °F 44.2 °F 29.5 in NW 2.2 mph 3.1 mph 97% 0 in 43 W/m2
14:35 45.1 °F 44.2 °F 29.5 in NW 2.2 mph 3.1 mph 97% 0 in 43 W/m2
14:40 45.1 °F 44.2 °F 29.5 in NW 2.2 mph 3.1 mph 97% 0 in 43 W/m2
14:45 45.1 °F 44.2 °F 29.5 in NW 2.2 mph 3.1 mph 97% 0 in 43 W/m2
14:50 45.1 °F 44.2 °F 29.5 in NW 2.2 mph 3.1 mph 97% 0 in 43 W/m2
14:55 45.1 °F 44.2 °F 29.5 in NW 2.2 mph 3.1 mph 97% 0 in 43 W/m2
15:00 45.1 °F 44.2 °F 29.5 in NW 2.2 mph 3.1 mph 97% 0 in 43 W/m2
15:05 45.1 °F 44.2 °F 29.5 in NW 2.2 mph 3.1 mph 97% 0 in 43 W/m2
15:10 45.1 °F 44.2 °F 29.5 in NW 2.2 mph 3.1 mph 97% 0 in 43 W/m2
15:15 45.1 °F 44.2 °F 29.5 in NW 2.2 mph 3.1 mph 97% 0 in 43 W/m2
15:20 45.1 °F 44.2 °F 29.5 in NW 2.2 mph 3.1 mph 97% 0 in 43 W/m2
15:25 45.1 °F 44.2 °F 29.5 in NW 2.2 mph 3.1 mph 97% 0 in 43 W/m2
15:30 45.1 °F 44.2 °F 29.5 in NW 2.2 mph 3.1 mph 97% 0 in 43 W/m2
15:35 45.1 °F 44.2 °F 29.5 in NW 2.2 mph 3.1 mph 97% 0 in 43 W/m2
15:40 45.1 °F 44.2 °F 29.5 in NW 2.2 mph 3.1 mph 97% 0 in 43 W/m2
15:45 45.1 °F 44.2 °F 29.5 in NW 2.2 mph 3.1 mph 97% 0 in 43 W/m2
15:50 45.1 °F 44.2 °F 29.5 in NW 2.2 mph 3.1 mph 97% 0 in 43 W/m2
15:55 45.1 °F 44.2 °F 29.5 in NW 2.2 mph 3.1 mph 97% 0 in 43 W/m2
16:00 45.1 °F 44.2 °F 29.5 in NW 2.2 mph 3.1 mph 97% 0 in 43 W/m2
16:05 45.1 °F 44.2 °F 29.5 in NW 2.2 mph 3.1 mph 97% 0 in 43 W/m2
16:10 45.1 °F 44.2 °F 29.5 in NW 2.2 mph 3.1 mph 97% 0 in 43 W/m2
16:15 45.1 °F 44.2 °F 29.5 in NW 2.2 mph 3.1 mph 97% 0 in 43 W/m2
16:20 45.1 °F 44.2 °F 29.5 in NW 2.2 mph 3.1 mph 97% 0 in 43 W/m2
16:25 45.1 °F 44.2 °F 29.5 in NW 2.2 mph 3.1 mph 97% 0 in 43 W/m2
16:30 45.1 °F 44.2 °F 29.5 in NW 2.2 mph 3.1 mph 97% 0 in 43 W/m2
16:36 45.1 °F 44.2 °F 29.5 in NW 2.2 mph 3.1 mph 97% 0 in 43 W/m2
16:41 45.1 °F 44.2 °F 29.5 in NW 2.2 mph 3.1 mph 97% 0 in 43 W/m2
16:46 45.1 °F 44.2 °F 29.5 in NW 2.2 mph 3.1 mph 97% 0 in 43 W/m2
16:51 45.1 °F 44.2 °F 29.5 in NW 2.2 mph 3.1 mph 97% 0 in 43 W/m2
16:56 45.1 °F 44.2 °F 29.5 in NW 2.2 mph 3.1 mph 97% 0 in 43 W/m2
17:01 45.1 °F 44.2 °F 29.5 in NW 2.2 mph 3.1 mph 97% 0 in 43 W/m2
17:06 45.1 °F 44.2 °F 29.5 in NW 2.2 mph 3.1 mph 97% 0 in 43 W/m2
17:11 51.4 °F 49.3 °F 29.5 in South 3.1 mph 6 mph 92% 0.06 in 0 W/m2
17:16 51.4 °F 49.5 °F 29.5 in SSW 3.1 mph 6 mph 93% 0.06 in 0 W/m2
17:21 51.3 °F 49.3 °F 29.5 in SSW 3.1 mph 5.4 mph 93% 0.06 in 0 W/m2
17:26 51.4 °F 49.8 °F 29.5 in South 2.2 mph 7.6 mph 94% 0.06 in 0 W/m2
17:31 51.4 °F 49.8 °F 29.5 in South 4.5 mph 7.6 mph 94% 0.06 in 0 W/m2
17:36 51.4 °F 49.5 °F 29.5 in SSE 1.6 mph 7.6 mph 93% 0.06 in 0 W/m2
17:41 51.3 °F 49.3 °F 29.5 in SSE 3.1 mph 7.6 mph 93% 0.06 in 0 W/m2
17:46 51.4 °F 49.5 °F 29.5 in South 3.1 mph 7.6 mph 93% 0.06 in 0 W/m2
17:51 51.4 °F 49.5 °F 29.5 in South 3.8 mph 7.6 mph 93% 0.07 in 0 W/m2
17:56 51.6 °F 50 °F 29.5 in South 5.4 mph 9.8 mph 94% 0.07 in 0 W/m2
18:01 51.4 °F 49.8 °F 29.5 in South 3.8 mph 9.8 mph 94% 0.07 in 0 W/m2
18:06 51.4 °F 49.5 °F 29.5 in South 6 mph 9.2 mph 93% 0.07 in 0 W/m2
18:11 51.6 °F 49.6 °F 29.5 in South 4.5 mph 9.8 mph 93% 0.01 in 0 W/m2
18:16 51.6 °F 49.6 °F 29.5 in South 3.8 mph 9.8 mph 93% 0.02 in 0 W/m2
18:21 51.8 °F 49.6 °F 29.6 in South 4.5 mph 9.8 mph 92% 0.02 in 0 W/m2
18:26 51.6 °F 49.6 °F 29.5 in South 4.5 mph 9.8 mph 93% 0.02 in 0 W/m2
18:31 51.4 °F 49.5 °F 29.6 in South 4.5 mph 11.4 mph 93% 0.02 in 0 W/m2
18:36 51.4 °F 49.3 °F 29.6 in South 3.8 mph 11.4 mph 92% 0.02 in 0 W/m2
18:41 51.4 °F 49.5 °F 29.6 in SSW 4.5 mph 9.8 mph 93% 0.02 in 0 W/m2
18:46 51.4 °F 49.5 °F 29.6 in South 4.5 mph 9.8 mph 93% 0.04 in 0 W/m2
18:51 51.6 °F 49.6 °F 29.6 in SSW 4.5 mph 10.7 mph 93% 0.02 in 0 W/m2
18:56 51.6 °F 50 °F 29.6 in SSW 3.8 mph 10.7 mph 94% 0.02 in 0 W/m2
19:01 51.6 °F 50 °F 29.6 in SSW 5.4 mph 9.2 mph 94% 0.02 in 0 W/m2
19:06 51.6 °F 49.6 °F 29.6 in South 6.9 mph 9.8 mph 93% 0.02 in 0 W/m2
19:11 51.6 °F 49.6 °F 29.6 in South 4.5 mph 9.8 mph 93% 0.04 in 0 W/m2
19:16 51.6 °F 49.5 °F 29.6 in South 5.4 mph 9.2 mph 92% 0.02 in 0 W/m2
19:21 51.6 °F 49.5 °F 29.6 in SSW 5.4 mph 7.6 mph 92% 0.02 in 0 W/m2
19:26 51.6 °F 49.6 °F 29.6 in SSW 2.2 mph 7.6 mph 93% 0.02 in 0 W/m2
19:31 51.6 °F 49.6 °F 29.6 in SSW 3.8 mph 7.6 mph 93% 0.02 in 0 W/m2
19:36 51.6 °F 49.6 °F 29.6 in SSW 3.8 mph 6.9 mph 93% 0.02 in 0 W/m2
19:41 52 °F 50 °F 29.6 in South 6 mph 8.3 mph 93% 0.02 in 0 W/m2
19:46 52.3 °F 50.7 °F 29.6 in South 7.6 mph 10.7 mph 94% 0.01 in 0 W/m2
19:51 52.3 °F 51.1 °F 29.6 in SW 9.8 mph 15.9 mph 95% 0.01 in 0 W/m2
19:56 52.3 °F 51.1 °F 29.6 in SW 12.1 mph 16.8 mph 95% 0.02 in 0 W/m2
20:01 52 °F 50.5 °F 29.6 in SW 10.7 mph 16.8 mph 95% 0.02 in 0 W/m2
20:06 52 °F 50.5 °F 29.6 in SW 10.7 mph 16.8 mph 95% 0.02 in 0 W/m2
20:11 52 °F 50.5 °F 29.6 in SW 9.2 mph 15.9 mph 95% 0.02 in 0 W/m2
20:16 51.6 °F 50.7 °F 29.6 in SW 7.6 mph 15.9 mph 97% 0.02 in 0 W/m2
20:21 51.6 °F 50.7 °F 29.6 in WSW 8.3 mph 13.6 mph 97% 0.02 in 0 W/m2
20:26 51.6 °F 50.7 °F 29.6 in SW 7.6 mph 9.2 mph 97% 0.02 in 0 W/m2
20:31 51.6 °F 50.7 °F 29.6 in SW 4.5 mph 9.2 mph 97% 0.04 in 0 W/m2
20:36 51.6 °F 51.1 °F 29.6 in SW 7.6 mph 13.6 mph 98% 0.05 in 0 W/m2
20:41 52 °F 51.3 °F 29.6 in SW 9.8 mph 15.2 mph 97% 0.05 in 0 W/m2
20:46 51.6 °F 51.4 °F 29.6 in WSW 9.2 mph 15.9 mph 99% 0.08 in 0 W/m2
20:51 52 °F 51.4 °F 29.6 in SW 8.3 mph 15.9 mph 98% 0.08 in 0 W/m2
20:56 52.2 °F 51.6 °F 29.6 in SW 11.4 mph 15.9 mph 98% 0.09 in 0 W/m2
21:01 52.3 °F 51.8 °F 29.6 in SW 9.8 mph 15.9 mph 98% 0.08 in 0 W/m2
21:06 52.3 °F 51.8 °F 29.6 in SSW 6.9 mph 15.9 mph 98% 0.09 in 0 W/m2
21:11 52.5 °F 52 °F 29.6 in SSW 11.4 mph 15.2 mph 98% 0.09 in 0 W/m2
21:16 52.5 °F 52 °F 29.6 in SW 13.6 mph 19 mph 98% 0.09 in 0 W/m2
21:21 52.7 °F 52.2 °F 29.6 in SW 13 mph 19 mph 98% 0.09 in 0 W/m2
21:26 52.9 °F 52.3 °F 29.6 in SW 10.7 mph 19 mph 98% 0.08 in 0 W/m2
21:31 52.9 °F 52.3 °F 29.6 in SSW 10.7 mph 17.4 mph 98% 0.08 in 0 W/m2
21:36 52.5 °F 52 °F 29.6 in SW 8.3 mph 18.3 mph 98% 0.07 in 0 W/m2
21:41 52.5 °F 52 °F 29.6 in SW 9.2 mph 18.3 mph 98% 0.07 in 0 W/m2
21:46 52.5 °F 52 °F 29.6 in SW 7.6 mph 16.8 mph 98% 0.02 in 0 W/m2
21:51 52.7 °F 52.2 °F 29.6 in SSW 8.3 mph 15.9 mph 98% 0.04 in 0 W/m2
21:56 52.7 °F 52.2 °F 29.6 in SSW 9.8 mph 15.9 mph 98% 0.05 in 0 W/m2
22:01 52.2 °F 51.6 °F 29.6 in SSW 6.9 mph 14.5 mph 98% 0.05 in 0 W/m2
22:06 52 °F 51.4 °F 29.6 in SSW 9.8 mph 14.5 mph 98% 0.04 in 0 W/m2
22:11 51.6 °F 51.4 °F 29.6 in SW 2.2 mph 15.2 mph 99% 0.04 in 0 W/m2
22:16 51.6 °F 51.4 °F 29.6 in SW 10.7 mph 19 mph 99% 0.05 in 0 W/m2
22:21 51.6 °F 51.4 °F 29.6 in SW 9.2 mph 19 mph 99% 0.05 in 0 W/m2
22:26 51.6 °F 51.4 °F 29.6 in SSW 6.9 mph 17.4 mph 99% 0.06 in 0 W/m2
22:31 51.6 °F 51.4 °F 29.6 in SW 9.2 mph 17.4 mph 99% 0.07 in 0 W/m2
22:36 51.6 °F 51.4 °F 29.6 in SW 6 mph 15.9 mph 99% 0.07 in 0 W/m2
22:41 52 °F 51.4 °F 29.6 in SW 11.4 mph 15.9 mph 98% 0.07 in 0 W/m2
22:46 52.3 °F 51.8 °F 29.6 in South 7.6 mph 15.9 mph 98% 0.07 in 0 W/m2
22:51 52.5 °F 52 °F 29.6 in South 5.4 mph 15.2 mph 98% 0.06 in 0 W/m2
22:56 52.5 °F 52 °F 29.6 in SSW 6.9 mph 11.4 mph 98% 0.04 in 0 W/m2
23:01 52.5 °F 51.6 °F 29.6 in SSW 6.9 mph 11.4 mph 97% 0.04 in 0 W/m2
23:06 52.7 °F 52 °F 29.6 in SSW 4.5 mph 11.4 mph 97% 0.04 in 0 W/m2
23:11 52.7 °F 52 °F 29.6 in SSW 5.4 mph 9.8 mph 97% 0.05 in 0 W/m2
23:16 52.7 °F 51.6 °F 29.6 in South 5.4 mph 7.6 mph 96% 0.05 in 0 W/m2
23:21 52.5 °F 51.4 °F 29.6 in South 3.1 mph 7.6 mph 96% 0.04 in 0 W/m2
23:26 52.5 °F 51.4 °F 29.6 in South 3.8 mph 7.6 mph 96% 0.04 in 0 W/m2
23:31 52.5 °F 51.4 °F 29.6 in South 1.6 mph 7.6 mph 96% 0.02 in 0 W/m2
23:36 52.3 °F 51.3 °F 29.6 in SSE 3.8 mph 6.9 mph 96% 0.05 in 0 W/m2
23:41 52 °F 50.9 °F 29.6 in South 0.7 mph 7.6 mph 96% 0.06 in 0 W/m2
23:46 51.6 °F 50.7 °F 29.7 in South 0.7 mph 7.6 mph 97% 0.06 in 0 W/m2
23:51 51.6 °F 50.7 °F 29.6 in SSE 3.8 mph 5.4 mph 97% 0.07 in 0 W/m2
23:56 51.6 °F 50.7 °F 29.6 in South 1.6 mph 5.4 mph 97% 0.08 in 0 W/m2
Northern Hawkes Bay. New Zealand Historic Data
Compliments of Weather Underground - 2 mb